Time;durP1;ratioP1;P1;durP2;ratioP2;P2;SDS_P1;SDS_P2;PMS_P1;PMS_P2;Temp;Humidity;BMP_temperature;BMP_pressure;BME280_temperature;BME280_humidity;BME280_pressure;Samples;Min_cycle;Max_cycle;Signal;HPM_P1;HPM_P2
2022/01/22 00:02:13;;;;;;;28.40;12.63;;;;;5.50;102512.00;;;;5055367;28;20235;-69
2022/01/22 00:05:00;;;;;;;27.30;12.07;;;;;5.50;102519.00;;;;5056863;28;20318;-67
2022/01/22 00:07:47;;;;;;;22.47;11.23;;;;;5.50;102515.00;;;;5069811;28;20220;-73
2022/01/22 00:10:34;;;;;;;27.80;13.20;;;;;5.50;102518.00;;;;5060121;28;20605;-72
2022/01/22 00:16:26;;;;;;;26.23;11.50;;;;;5.60;102526.00;;;;5061041;28;20228;-69
2022/01/22 00:19:12;;;;;;;28.80;12.00;;;;;5.50;102521.00;;;;5057382;28;20603;-69
2022/01/22 00:21:59;;;;;;;28.73;12.70;;;;;5.70;102523.00;;;;5054704;28;20712;-70
2022/01/22 00:24:52;;;;;;;26.53;12.60;;;;;5.70;102505.00;;;;5064962;28;20223;-70
2022/01/22 00:27:40;;;;;;;26.50;11.80;;;;;5.60;102518.00;;;;5081904;28;20228;-67
2022/01/22 00:30:28;;;;;;;23.60;11.77;;;;;5.50;102514.00;;;;5068384;28;20239;-71
2022/01/22 00:33:16;;;;;;;22.43;11.63;;;;;5.60;102509.00;;;;5068660;28;20611;-70
2022/01/22 00:36:02;;;;;;;27.10;12.20;;;;;5.60;102517.00;;;;5067299;28;20232;-71
2022/01/22 00:38:49;;;;;;;29.37;11.67;;;;;5.50;102514.00;;;;5062563;28;20810;-71
2022/01/22 00:41:36;;;;;;;26.70;11.43;;;;;5.50;102494.00;;;;5067813;28;20374;-71
2022/01/22 00:44:22;;;;;;;25.70;10.60;;;;;5.50;102500.00;;;;5068775;28;20247;-68
2022/01/22 00:47:11;;;;;;;24.07;11.27;;;;;5.50;102496.00;;;;5067310;28;20236;-70
2022/01/22 00:49:57;;;;;;;23.60;11.43;;;;;5.50;102498.00;;;;5046537;28;20667;-71
2022/01/22 00:52:45;;;;;;;23.90;10.93;;;;;5.50;102498.00;;;;5055785;28;20386;-71
2022/01/22 00:55:31;;;;;;;25.90;11.40;;;;;5.60;102497.00;;;;5072560;28;20239;-70
2022/01/22 00:58:17;;;;;;;23.20;10.80;;;;;5.40;102513.00;;;;5068850;28;20293;-67
2022/01/22 01:01:04;;;;;;;18.47;10.63;;;;;5.50;102507.00;;;;5062840;28;20231;-70
2022/01/22 01:03:52;;;;;;;21.77;10.43;;;;;5.60;102497.00;;;;5060714;28;20598;-71
2022/01/22 01:06:39;;;;;;;24.27;11.57;;;;;5.60;102501.00;;;;5068037;28;20711;-71
2022/01/22 01:09:25;;;;;;;30.20;10.73;;;;;5.60;102504.00;;;;5068507;28;20236;-70
2022/01/22 01:12:13;;;;;;;22.63;10.50;;;;;5.50;102501.00;;;;5067464;28;20242;-71
2022/01/22 01:15:13;;;;;;;23.70;10.50;;;;;5.50;102491.00;;;;5062090;28;20282;-72
2022/01/22 01:18:06;;;;;;;22.53;11.10;;;;;5.60;102494.00;;;;5062256;28;20232;-71
2022/01/22 01:33:18;;;;;;;22.57;11.47;;;;;5.50;102497.00;;;;5063577;28;20278;-70
2022/01/22 01:36:06;;;;;;;22.17;10.37;;;;;5.50;102511.00;;;;5063083;28;20228;-71
2022/01/22 01:38:56;;;;;;;24.97;10.67;;;;;5.50;102502.00;;;;5063999;28;20236;-71
2022/01/22 01:41:51;;;;;;;23.07;10.73;;;;;5.50;102507.00;;;;5067578;28;20306;-73
2022/01/22 01:44:38;;;;;;;26.53;11.10;;;;;5.50;102504.00;;;;5067965;28;21666;-69
2022/01/22 01:47:24;;;;;;;23.60;10.90;;;;;5.50;102512.00;;;;5067723;28;20248;-72
2022/01/22 01:50:11;;;;;;;21.27;11.43;;;;;5.50;102504.00;;;;5063671;28;20223;-70
2022/01/22 01:53:08;;;;;;;23.10;11.00;;;;;5.40;102502.00;;;;5065573;28;20273;-71
2022/01/22 01:56:05;;;;;;;23.17;10.47;;;;;5.40;102497.00;;;;5060815;28;20224;-69
2022/01/22 01:58:52;;;;;;;26.53;10.83;;;;;5.50;102500.00;;;;5060514;28;20219;-70
2022/01/22 02:01:38;;;;;;;22.90;10.43;;;;;5.50;102487.00;;;;5067150;28;20761;-70
2022/01/22 02:04:25;;;;;;;18.73;10.53;;;;;5.50;102504.00;;;;5067477;28;20231;-70
2022/01/22 02:07:11;;;;;;;21.60;10.50;;;;;5.50;102500.00;;;;5067063;28;20223;-72
2022/01/22 02:09:59;;;;;;;22.07;10.63;;;;;5.50;102511.00;;;;5061647;28;20367;-71
2022/01/22 02:25:17;;;;;;;20.83;10.17;;;;;5.60;102514.00;;;;5063090;28;20250;-71
2022/01/22 02:28:04;;;;;;;20.77;10.60;;;;;5.60;102511.00;;;;5067346;28;20227;-71
2022/01/22 02:30:56;;;;;;;17.07;9.43;;;;;5.50;102516.00;;;;5065099;28;20231;-71
2022/01/22 02:33:51;;;;;;;18.83;10.60;;;;;5.50;102516.00;;;;5066916;28;20710;-71
2022/01/22 02:36:43;;;;;;;20.53;10.13;;;;;5.50;102511.00;;;;5066358;28;20817;-70
2022/01/22 02:39:38;;;;;;;21.57;10.77;;;;;5.60;102515.00;;;;5065704;28;20603;-71
2022/01/22 02:42:28;;;;;;;19.80;10.63;;;;;5.50;102524.00;;;;5065781;28;20239;-70
2022/01/22 02:45:18;;;;;;;26.10;11.37;;;;;5.70;102499.00;;;;5066764;28;20243;-70
2022/01/22 02:48:05;;;;;;;18.37;10.33;;;;;5.70;102499.00;;;;5061349;28;20232;-70
2022/01/22 02:50:51;;;;;;;20.40;10.50;;;;;5.70;102501.00;;;;5061102;28;20258;-70
2022/01/22 02:53:38;;;;;;;20.57;10.87;;;;;5.50;102498.00;;;;5047038;28;20227;-70
2022/01/22 02:56:25;;;;;;;18.87;10.73;;;;;5.60;102493.00;;;;5066070;28;20307;-71
2022/01/22 02:59:11;;;;;;;18.40;10.23;;;;;5.60;102493.00;;;;5066836;28;20239;-71
2022/01/22 03:01:59;;;;;;;23.10;11.47;;;;;5.70;102498.00;;;;5059191;28;20717;-71
2022/01/22 03:04:46;;;;;;;22.83;10.20;;;;;5.60;102487.00;;;;5060667;28;20261;-71
2022/01/22 03:07:32;;;;;;;21.63;10.27;;;;;5.60;102498.00;;;;5063408;28;20693;-71
2022/01/22 03:10:22;;;;;;;24.03;10.83;;;;;5.70;102492.00;;;;5050874;28;20232;-71
2022/01/22 03:16:27;;;;;;;20.60;10.97;;;;;5.60;102515.00;;;;5055385;28;20336;-71
2022/01/22 03:19:28;;;;;;;18.43;9.50;;;;;5.70;102509.00;;;;5053490;28;20367;-70
2022/01/22 03:22:18;;;;;;;20.67;9.90;;;;;5.70;102514.00;;;;5054496;28;20610;-70
2022/01/22 03:28:14;;;;;;;23.27;9.17;;;;;5.60;102514.00;;;;5060160;28;20275;-69
2022/01/22 03:31:00;;;;;;;18.60;8.90;;;;;5.70;102519.00;;;;5052790;28;20228;-70
2022/01/22 03:33:47;;;;;;;17.97;9.17;;;;;5.70;102515.00;;;;5061629;28;20239;-71
2022/01/22 03:36:34;;;;;;;19.30;8.77;;;;;5.80;102520.00;;;;5066833;28;20223;-71
2022/01/22 03:39:20;;;;;;;18.10;9.47;;;;;5.80;102513.00;;;;5065781;28;20671;-71
2022/01/22 03:42:07;;;;;;;20.53;8.93;;;;;5.70;102510.00;;;;5060425;28;20270;-69
2022/01/22 03:44:54;;;;;;;19.10;8.93;;;;;5.80;102514.00;;;;5062393;28;20238;-69
2022/01/22 03:47:41;;;;;;;16.43;8.63;;;;;5.80;102518.00;;;;5065229;28;20254;-69
2022/01/22 03:50:28;;;;;;;22.33;8.90;;;;;5.70;102477.00;;;;5062281;28;20300;-67
2022/01/22 03:53:14;;;;;;;19.07;8.60;;;;;5.80;102523.00;;;;5065143;28;20238;-70
2022/01/22 03:56:04;;;;;;;20.40;8.87;;;;;5.80;102529.00;;;;5065560;28;20219;-70
2022/01/22 03:58:50;;;;;;;17.53;8.27;;;;;5.80;102524.00;;;;5064472;28;20623;-70
2022/01/22 04:04:41;;;;;;;16.77;8.23;;;;;5.70;102514.00;;;;5030015;28;20688;-69
2022/01/22 04:10:40;;;;;;;14.17;7.30;;;;;5.60;102504.00;;;;5036480;28;20227;-69
2022/01/22 04:13:32;;;;;;;16.17;7.27;;;;;5.70;102506.00;;;;5063088;28;20849;-70
2022/01/22 04:16:18;;;;;;;15.27;7.00;;;;;5.80;102524.00;;;;5061845;28;20310;-71
2022/01/22 04:25:21;;;;;;;12.87;6.87;;;;;5.80;102516.00;;;;5061467;28;20284;-69
2022/01/22 04:28:08;;;;;;;13.53;5.70;;;;;5.80;102523.00;;;;5056675;28;20313;-71
2022/01/22 04:30:54;;;;;;;12.60;6.20;;;;;5.80;102511.00;;;;5058303;28;20266;-70
2022/01/22 04:33:42;;;;;;;10.80;5.77;;;;;5.90;102512.00;;;;5063493;28;20258;-70
2022/01/22 04:36:29;;;;;;;13.07;6.40;;;;;5.90;102528.00;;;;5063936;28;21030;-69
2022/01/22 04:39:18;;;;;;;16.23;5.97;;;;;5.80;102521.00;;;;5064124;28;20236;-70
2022/01/22 04:42:04;;;;;;;13.37;5.97;;;;;5.90;102520.00;;;;5064960;28;20587;-69
2022/01/22 04:44:57;;;;;;;10.80;5.37;;;;;5.80;102523.00;;;;5049931;28;20423;-70
2022/01/22 04:47:51;;;;;;;13.60;5.93;;;;;5.90;102530.00;;;;5054753;28;20223;-69
2022/01/22 04:56:47;;;;;;;14.93;5.33;;;;;5.80;102532.00;;;;5057524;28;20306;-70
2022/01/22 04:59:34;;;;;;;12.77;5.60;;;;;5.70;102535.00;;;;5057705;28;20281;-70
2022/01/22 05:02:20;;;;;;;12.70;5.67;;;;;5.80;102525.00;;;;5073077;28;20232;-70
2022/01/22 05:05:08;;;;;;;11.60;5.50;;;;;5.80;102505.00;;;;5063638;28;20228;-69
2022/01/22 05:07:54;;;;;;;9.97;5.33;;;;;5.80;102544.00;;;;5064768;28;20235;-69
2022/01/22 05:10:42;;;;;;;13.70;5.20;;;;;6.00;102538.00;;;;5068727;28;20212;-70
2022/01/22 05:13:28;;;;;;;10.60;5.23;;;;;5.90;102542.00;;;;5066196;28;20243;-72
2022/01/22 05:16:15;;;;;;;15.10;5.23;;;;;5.90;102547.00;;;;5064579;28;20761;-70
2022/01/22 05:19:07;;;;;;;14.60;5.33;;;;;6.00;102544.00;;;;5064755;28;20611;-68
2022/01/22 05:21:57;;;;;;;8.63;5.47;;;;;6.00;102538.00;;;;5064459;28;20248;-70
2022/01/22 05:24:48;;;;;;;12.33;6.07;;;;;6.00;102542.00;;;;5059982;28;20224;-70
2022/01/22 05:27:54;;;;;;;12.03;5.03;;;;;5.90;102542.00;;;;5067248;28;20366;-69
2022/01/22 05:31:00;;;;;;;8.63;4.87;;;;;5.90;102538.00;;;;5067564;28;20596;-68
2022/01/22 05:37:02;;;;;;;16.93;5.37;;;;;6.10;102530.00;;;;5061444;28;20262;-70
2022/01/22 05:39:49;;;;;;;11.70;5.00;;;;;6.00;102534.00;;;;5060371;28;20219;-71
2022/01/22 05:42:37;;;;;;;12.40;5.20;;;;;5.90;102526.00;;;;5067041;28;20227;-71
2022/01/22 05:45:23;;;;;;;13.23;5.33;;;;;6.00;102543.00;;;;5067652;28;20232;-69
2022/01/22 05:48:09;;;;;;;12.87;5.13;;;;;5.90;102541.00;;;;5066867;28;20231;-70
2022/01/22 05:51:01;;;;;;;11.70;4.60;;;;;6.10;102543.00;;;;5062966;28;20224;-68
2022/01/22 05:54:12;;;;;;;13.87;5.40;;;;;6.10;102543.00;;;;5064345;28;20728;-69
2022/01/22 06:00:01;;;;;;;10.27;5.17;;;;;6.00;102547.00;;;;5064096;28;20243;-70
2022/01/22 06:02:47;;;;;;;12.53;5.13;;;;;6.00;102556.00;;;;5062093;28;20828;-70
2022/01/22 06:05:33;;;;;;;9.70;4.97;;;;;5.90;102557.00;;;;5066135;28;20231;-72
2022/01/22 06:08:21;;;;;;;9.47;4.53;;;;;6.00;102557.00;;;;5067045;28;20236;-71
2022/01/22 06:11:09;;;;;;;11.00;5.00;;;;;6.10;102571.00;;;;5067129;28;20259;-71
2022/01/22 06:13:56;;;;;;;11.17;4.63;;;;;6.00;102560.00;;;;5064748;28;20239;-70
2022/01/22 06:16:44;;;;;;;16.33;4.93;;;;;6.00;102571.00;;;;5062096;28;20262;-69
2022/01/22 06:19:30;;;;;;;10.13;4.50;;;;;5.90;102560.00;;;;5060932;28;20615;-70
2022/01/22 06:22:16;;;;;;;10.97;4.63;;;;;6.00;102558.00;;;;5066327;28;20275;-69
2022/01/22 06:25:03;;;;;;;15.53;4.60;;;;;6.00;102573.00;;;;5067246;28;20278;-69
2022/01/22 06:27:49;;;;;;;9.40;4.20;;;;;6.10;102570.00;;;;5071742;28;20269;-70
2022/01/22 06:30:36;;;;;;;11.47;4.40;;;;;6.10;102578.00;;;;5066734;28;20248;-72
2022/01/22 06:33:23;;;;;;;10.00;4.20;;;;;6.00;102580.00;;;;5066718;28;20235;-70
2022/01/22 06:36:09;;;;;;;9.07;4.03;;;;;6.00;102572.00;;;;5053509;28;20232;-70
2022/01/22 06:38:59;;;;;;;11.47;4.37;;;;;6.00;102582.00;;;;5060241;28;20267;-70
2022/01/22 06:41:45;;;;;;;8.67;4.40;;;;;5.90;102578.00;;;;5060306;28;20236;-69
2022/01/22 06:44:34;;;;;;;8.30;4.03;;;;;5.90;102578.00;;;;5059985;28;20244;-70
2022/01/22 06:47:20;;;;;;;7.53;4.10;;;;;6.00;102593.00;;;;5056513;28;20224;-70
2022/01/22 06:50:09;;;;;;;10.77;4.00;;;;;5.90;102591.00;;;;5057718;28;20232;-71
2022/01/22 06:52:57;;;;;;;9.10;3.97;;;;;6.00;102593.00;;;;5058165;28;20227;-72
2022/01/22 06:55:48;;;;;;;7.47;3.60;;;;;5.90;102601.00;;;;5056487;28;20221;-70
2022/01/22 06:58:34;;;;;;;10.47;3.93;;;;;5.90;102605.00;;;;5078297;28;20240;-71
2022/01/22 07:01:21;;;;;;;8.10;3.67;;;;;6.00;102598.00;;;;5061881;28;20220;-71
2022/01/22 07:04:08;;;;;;;6.80;4.07;;;;;5.90;102600.00;;;;5059872;28;20229;-70
2022/01/22 07:06:56;;;;;;;8.07;3.40;;;;;6.00;102602.00;;;;5055158;28;20256;-70
2022/01/22 07:09:44;;;;;;;7.23;3.60;;;;;6.00;102597.00;;;;5065671;28;20231;-72
2022/01/22 07:12:30;;;;;;;6.47;3.63;;;;;6.00;102609.00;;;;5062964;28;20240;-69
2022/01/22 07:15:17;;;;;;;8.43;3.83;;;;;6.20;102610.00;;;;5066483;28;20231;-70
2022/01/22 07:18:04;;;;;;;7.77;4.10;;;;;6.00;102616.00;;;;5060277;28;20301;-69
2022/01/22 07:20:55;;;;;;;8.10;3.67;;;;;6.00;102616.00;;;;5060834;28;20351;-68
2022/01/22 07:26:43;;;;;;;11.27;4.30;;;;;6.10;102626.00;;;;5058188;28;20219;-70
2022/01/22 07:29:29;;;;;;;9.53;3.30;;;;;6.00;102625.00;;;;5059492;28;20722;-68
2022/01/22 07:32:26;;;;;;;13.13;4.10;;;;;6.00;102633.00;;;;5068920;28;20232;-70
2022/01/22 07:35:17;;;;;;;13.13;4.10;;;;;6.10;102630.00;;;;5061352;28;20235;-68
2022/01/22 07:38:03;;;;;;;14.03;4.13;;;;;6.00;102628.00;;;;5060483;28;20247;-69
2022/01/22 07:40:51;;;;;;;7.83;4.10;;;;;6.10;102639.00;;;;5061356;28;20239;-70
2022/01/22 07:43:38;;;;;;;11.33;4.40;;;;;6.10;102634.00;;;;5065997;28;20802;-69
2022/01/22 07:46:25;;;;;;;9.47;4.77;;;;;6.00;102629.00;;;;5063007;28;20278;-71
2022/01/22 07:49:11;;;;;;;10.33;4.43;;;;;6.00;102629.00;;;;5065620;28;20231;-69
2022/01/22 07:51:57;;;;;;;13.77;4.63;;;;;6.10;102626.00;;;;5059005;28;20223;-70
2022/01/22 07:54:44;;;;;;;9.60;4.13;;;;;6.10;102630.00;;;;5064066;28;20791;-70
2022/01/22 07:57:32;;;;;;;8.60;4.10;;;;;6.20;102630.00;;;;5065008;28;20798;-70
2022/01/22 08:00:18;;;;;;;9.93;4.80;;;;;6.20;102624.00;;;;5070056;28;20314;-70
2022/01/22 08:03:06;;;;;;;9.60;4.50;;;;;6.20;102630.00;;;;5067215;28;20248;-71
2022/01/22 08:05:52;;;;;;;13.93;5.00;;;;;6.40;102642.00;;;;5058141;28;20584;-69
2022/01/22 08:08:38;;;;;;;10.13;4.67;;;;;6.20;102635.00;;;;5065430;28;20238;-69
2022/01/22 08:11:25;;;;;;;15.27;5.00;;;;;6.20;102646.00;;;;5064919;28;20231;-69
2022/01/22 08:14:13;;;;;;;12.00;5.27;;;;;6.30;102635.00;;;;5064682;28;20247;-71
2022/01/22 08:16:59;;;;;;;11.40;5.40;;;;;6.30;102650.00;;;;5063306;28;20375;-70
2022/01/22 08:19:46;;;;;;;11.73;5.23;;;;;6.30;102646.00;;;;5063771;28;20606;-70
2022/01/22 08:22:32;;;;;;;11.97;5.20;;;;;6.20;102647.00;;;;5063755;28;20382;-70
2022/01/22 08:25:18;;;;;;;11.17;5.63;;;;;6.20;102645.00;;;;5064636;28;20263;-70
2022/01/22 08:31:20;;;;;;;11.67;5.60;;;;;6.30;102641.00;;;;5064593;28;20235;-70
2022/01/22 08:37:11;;;;;;;12.03;6.20;;;;;6.30;102646.00;;;;5063234;28;20760;-71
2022/01/22 08:39:57;;;;;;;8.90;5.40;;;;;6.30;102647.00;;;;5062853;28;20273;-69
2022/01/22 08:42:45;;;;;;;13.77;5.67;;;;;6.40;102645.00;;;;5068001;28;20231;-70
2022/01/22 08:45:31;;;;;;;13.63;5.60;;;;;6.40;102648.00;;;;5068941;28;20239;-70
2022/01/22 08:48:20;;;;;;;13.20;6.13;;;;;6.40;102651.00;;;;5068749;28;20235;-66
2022/01/22 08:51:08;;;;;;;13.97;6.13;;;;;6.50;102661.00;;;;5068641;28;20290;-70
2022/01/22 08:54:06;;;;;;;15.20;6.57;;;;;6.50;102647.00;;;;5063498;28;20235;-70
2022/01/22 08:56:52;;;;;;;16.17;6.17;;;;;6.50;102647.00;;;;5062031;28;20715;-71
2022/01/22 08:59:39;;;;;;;15.53;6.63;;;;;6.50;102651.00;;;;5068836;28;20250;-71
2022/01/22 09:02:25;;;;;;;12.63;5.77;;;;;6.50;102642.00;;;;5060870;28;20232;-73
2022/01/22 09:05:16;;;;;;;12.87;6.10;;;;;6.50;102650.00;;;;5064183;28;20584;-71
2022/01/22 09:08:04;;;;;;;13.57;6.23;;;;;6.50;102647.00;;;;5068255;28;20220;-70
2022/01/22 09:10:52;;;;;;;11.73;5.87;;;;;6.70;102665.00;;;;5059283;28;20477;-71
2022/01/22 09:13:38;;;;;;;12.67;6.57;;;;;6.70;102677.00;;;;5066224;28;20591;-71
2022/01/22 09:16:24;;;;;;;12.77;5.83;;;;;6.70;102660.00;;;;5067874;28;20223;-71
2022/01/22 09:19:12;;;;;;;12.23;5.97;;;;;6.60;102672.00;;;;5068972;28;20254;-69
2022/01/22 09:22:00;;;;;;;12.83;5.70;;;;;6.60;102654.00;;;;5064980;28;20232;-71
2022/01/22 09:24:47;;;;;;;13.57;6.13;;;;;6.70;102669.00;;;;5060332;28;20301;-71
2022/01/22 09:27:33;;;;;;;13.30;5.53;;;;;6.70;102667.00;;;;5068447;28;20231;-72
2022/01/22 09:30:20;;;;;;;13.63;6.23;;;;;6.70;102654.00;;;;5068529;28;20355;-72
2022/01/22 09:33:07;;;;;;;15.13;6.63;;;;;6.70;102672.00;;;;5063801;28;20730;-71
2022/01/22 09:35:53;;;;;;;14.83;5.30;;;;;6.70;102674.00;;;;5061262;28;20246;-72
2022/01/22 09:38:41;;;;;;;13.87;6.37;;;;;6.70;102676.00;;;;5068092;28;20223;-71
2022/01/22 09:41:28;;;;;;;12.57;5.77;;;;;6.70;102682.00;;;;5059631;28;20727;-71
2022/01/22 09:44:15;;;;;;;13.20;5.90;;;;;6.70;102693.00;;;;5070276;28;20273;-71
2022/01/22 09:47:02;;;;;;;14.03;6.20;;;;;6.80;102689.00;;;;5067611;28;20234;-70
2022/01/22 09:49:48;;;;;;;14.03;5.43;;;;;6.90;102694.00;;;;5060498;28;20227;-71
2022/01/22 09:52:35;;;;;;;10.07;4.93;;;;;6.80;102700.00;;;;5066283;28;20301;-71
2022/01/22 09:55:23;;;;;;;10.33;5.33;;;;;6.80;102700.00;;;;5057392;28;20236;-69
2022/01/22 09:58:09;;;;;;;9.73;4.57;;;;;6.80;102697.00;;;;5069566;28;20227;-67
2022/01/22 10:00:55;;;;;;;11.20;4.83;;;;;7.00;102695.00;;;;5065467;28;20354;-71
2022/01/22 10:03:42;;;;;;;10.63;4.37;;;;;6.80;102698.00;;;;5064910;28;20302;-72
2022/01/22 10:06:30;;;;;;;8.43;3.67;;;;;6.90;102703.00;;;;5052884;28;20244;-70
2022/01/22 10:09:25;;;;;;;6.07;3.83;;;;;6.90;102697.00;;;;5057089;28;20228;-71
2022/01/22 10:12:16;;;;;;;8.87;4.00;;;;;6.90;102695.00;;;;5057431;28;20224;-70
2022/01/22 10:15:05;;;;;;;7.53;3.67;;;;;6.90;102700.00;;;;5058259;28;20367;-71
2022/01/22 10:17:53;;;;;;;5.93;3.50;;;;;7.20;102710.00;;;;5063914;28;20231;-75
2022/01/22 10:20:41;;;;;;;6.87;3.10;;;;;7.10;102702.00;;;;5091792;28;20259;-74
2022/01/22 10:23:28;;;;;;;7.30;2.77;;;;;7.20;102711.00;;;;5087346;28;20251;-74
2022/01/22 10:26:15;;;;;;;6.33;3.67;;;;;7.20;102690.00;;;;5094144;28;20260;-74
2022/01/22 10:29:10;;;;;;;6.73;2.77;;;;;7.30;102707.00;;;;5094974;28;20227;-74
2022/01/22 10:32:02;;;;;;;4.70;2.90;;;;;7.40;102714.00;;;;5090656;28;20239;-75
2022/01/22 10:34:48;;;;;;;8.13;3.00;;;;;7.40;102706.00;;;;5086996;28;20626;-74
2022/01/22 10:37:35;;;;;;;9.13;3.00;;;;;7.50;102713.00;;;;5095946;28;20232;-74
2022/01/22 10:40:27;;;;;;;6.20;2.73;;;;;7.40;102714.00;;;;5095682;28;20243;-75
2022/01/22 10:43:17;;;;;;;4.67;2.70;;;;;7.30;102709.00;;;;5096008;28;20219;-74
2022/01/22 10:46:13;;;;;;;5.47;2.57;;;;;7.40;102715.00;;;;5095554;28;20284;-74
2022/01/22 10:49:01;;;;;;;5.10;2.60;;;;;7.30;102717.00;;;;5076206;28;20270;-70
2022/01/22 10:51:51;;;;;;;4.27;2.13;;;;;7.40;102707.00;;;;5057089;28;20228;-73
2022/01/22 10:54:38;;;;;;;4.07;2.70;;;;;7.40;102708.00;;;;5065100;28;20322;-72
2022/01/22 10:57:26;;;;;;;3.83;2.40;;;;;7.40;102704.00;;;;5063363;28;20235;-73
2022/01/22 11:00:21;;;;;;;8.50;5.33;;;;;7.30;102705.00;;;;5064282;28;21009;-73
2022/01/22 11:03:22;;;;;;;7.33;3.63;;;;;7.30;102706.00;;;;5063269;28;20236;-70
2022/01/22 11:06:24;;;;;;;4.43;2.30;;;;;7.50;102710.00;;;;5055858;28;20278;-71
2022/01/22 11:09:11;;;;;;;4.17;2.67;;;;;7.20;102706.00;;;;5053964;28;20216;-70
2022/01/22 11:11:58;;;;;;;4.60;2.20;;;;;7.40;102710.00;;;;5055951;28;20862;-70
2022/01/22 11:14:45;;;;;;;3.37;2.30;;;;;7.40;102699.00;;;;5056538;28;20447;-71
2022/01/22 11:17:33;;;;;;;6.13;2.37;;;;;7.20;102708.00;;;;5056791;28;20237;-68
2022/01/22 11:20:20;;;;;;;3.93;2.30;;;;;7.30;102701.00;;;;5056849;28;20235;-71
2022/01/22 11:23:07;;;;;;;3.97;2.67;;;;;7.30;102693.00;;;;5055380;28;20231;-72
2022/01/22 11:25:56;;;;;;;2.80;2.43;;;;;7.30;102708.00;;;;5058125;28;20649;-71
2022/01/22 11:28:45;;;;;;;4.60;2.93;;;;;7.30;102709.00;;;;5065783;28;20335;-73
2022/01/22 11:31:32;;;;;;;4.17;2.77;;;;;7.20;102699.00;;;;5065283;28;20383;-71
2022/01/22 11:34:23;;;;;;;5.30;2.87;;;;;7.10;102700.00;;;;5062332;28;20306;-71
2022/01/22 11:37:15;;;;;;;4.43;3.10;;;;;7.20;102705.00;;;;5065881;28;20310;-71
2022/01/22 11:40:13;;;;;;;7.23;3.20;;;;;7.10;102710.00;;;;5065714;28;20216;-71
2022/01/22 11:43:05;;;;;;;5.67;3.00;;;;;7.10;102693.00;;;;5065213;28;20246;-72
2022/01/22 11:45:54;;;;;;;11.43;4.90;;;;;7.10;102717.00;;;;5061726;28;20234;-72
2022/01/22 11:48:41;;;;;;;5.17;3.50;;;;;7.30;102713.00;;;;5065813;28;20617;-71
2022/01/22 11:51:27;;;;;;;6.47;2.90;;;;;7.20;102713.00;;;;5064988;28;20231;-72
2022/01/22 11:54:15;;;;;;;9.50;2.93;;;;;7.30;102694.00;;;;5065881;28;20228;-71
2022/01/22 11:57:15;;;;;;;5.13;3.03;;;;;7.40;102672.00;;;;5061377;28;20273;-70
2022/01/22 12:00:22;;;;;;;4.50;2.83;;;;;7.40;102707.00;;;;5063957;28;20692;-72
2022/01/22 12:03:19;;;;;;;3.83;2.57;;;;;7.40;102709.00;;;;5060628;28;20235;-70
2022/01/22 12:06:26;;;;;;;5.23;3.33;;;;;7.50;102695.00;;;;5062604;28;20220;-70
2022/01/22 12:09:26;;;;;;;3.53;2.53;;;;;7.50;102706.00;;;;5065985;28;20756;-71
2022/01/22 12:15:53;;;;;;;3.13;2.43;;;;;7.40;102704.00;;;;5067418;28;20270;-71
2022/01/22 12:18:45;;;;;;;3.20;2.47;;;;;7.40;102708.00;;;;5069517;28;20223;-71
2022/01/22 12:21:37;;;;;;;2.90;2.20;;;;;7.40;102691.00;;;;5068682;28;20227;-73
2022/01/22 12:24:32;;;;;;;3.17;2.13;;;;;7.40;102701.00;;;;5067930;28;20234;-72
2022/01/22 12:27:42;;;;;;;7.43;3.00;;;;;7.40;102712.00;;;;5069390;28;20246;-73
2022/01/22 12:30:35;;;;;;;4.93;2.57;;;;;7.20;102708.00;;;;5068912;28;20549;-72
2022/01/22 12:33:46;;;;;;;4.23;3.00;;;;;7.30;102700.00;;;;5069276;28;20282;-72
2022/01/22 12:36:39;;;;;;;4.13;2.53;;;;;7.30;102708.00;;;;5067756;28;20311;-69
2022/01/22 12:39:28;;;;;;;4.53;2.83;;;;;7.20;102703.00;;;;5066982;28;20294;-72
2022/01/22 12:42:24;;;;;;;5.07;3.03;;;;;7.30;102716.00;;;;5065020;28;20906;-71
2022/01/22 12:45:10;;;;;;;5.93;2.70;;;;;7.30;102705.00;;;;5060894;28;20232;-72
2022/01/22 12:47:57;;;;;;;5.00;3.10;;;;;7.40;102704.00;;;;5062762;28;20215;-72
2022/01/22 12:50:44;;;;;;;4.60;2.90;;;;;7.40;102697.00;;;;5064162;28;20886;-72
2022/01/22 12:53:31;;;;;;;3.80;2.57;;;;;7.30;102707.00;;;;5068800;28;20235;-72
2022/01/22 12:56:49;;;;;;;9.40;3.00;;;;;7.40;102705.00;;;;5065283;28;20374;-72
2022/01/22 12:59:49;;;;;;;3.73;2.70;;;;;7.50;102701.00;;;;5067352;28;20235;-70
2022/01/22 13:02:43;;;;;;;4.90;2.67;;;;;7.40;102698.00;;;;5067876;28;20727;-71
2022/01/22 13:05:30;;;;;;;4.17;2.80;;;;;7.30;102702.00;;;;5069158;28;20877;-71
2022/01/22 13:08:27;;;;;;;6.60;3.07;;;;;7.40;102719.00;;;;5068169;28;20339;-72
2022/01/22 13:11:18;;;;;;;6.43;3.43;;;;;7.40;102710.00;;;;5064203;28;20637;-70
2022/01/22 13:14:04;;;;;;;9.10;3.70;;;;;7.40;102728.00;;;;5066453;28;20651;-72
2022/01/22 13:16:53;;;;;;;7.13;3.73;;;;;7.30;102714.00;;;;5061042;28;20295;-71
2022/01/22 13:19:40;;;;;;;7.97;4.30;;;;;7.30;102718.00;;;;5067737;28;20228;-71
2022/01/22 13:22:34;;;;;;;8.43;4.40;;;;;7.40;102730.00;;;;5065285;28;20363;-70
2022/01/22 13:25:21;;;;;;;10.87;4.57;;;;;7.20;102726.00;;;;5067788;28;20232;-70
2022/01/22 13:28:11;;;;;;;9.97;4.40;;;;;7.30;102723.00;;;;5058952;28;20594;-70
2022/01/22 13:31:02;;;;;;;13.43;4.40;;;;;7.20;102711.00;;;;5052509;28;20251;-72
2022/01/22 13:33:58;;;;;;;6.10;4.23;;;;;7.00;102718.00;;;;5072229;28;20362;-70
2022/01/22 13:36:55;;;;;;;10.00;4.73;;;;;7.10;102723.00;;;;5060839;28;20609;-72
2022/01/22 13:40:10;;;;;;;7.80;3.93;;;;;7.20;102722.00;;;;5068070;28;20224;-70
2022/01/22 13:49:07;;;;;;;9.37;4.80;;;;;7.20;102724.00;;;;5073176;28;20844;-68
2022/01/22 13:51:55;;;;;;;9.43;4.67;;;;;7.20;102728.00;;;;5060827;28;20224;-71
2022/01/22 13:54:43;;;;;;;8.67;4.63;;;;;7.10;102736.00;;;;5067953;28;20235;-71
2022/01/22 13:57:38;;;;;;;8.57;4.83;;;;;7.20;102734.00;;;;5067435;28;20240;-71
2022/01/22 14:00:25;;;;;;;12.30;4.70;;;;;7.20;102742.00;;;;5065283;28;20610;-71
2022/01/22 14:03:39;;;;;;;8.10;4.80;;;;;7.10;102734.00;;;;5065275;28;20232;-70
2022/01/22 14:06:33;;;;;;;10.83;4.53;;;;;7.10;102709.00;;;;5067216;28;20244;-68
2022/01/22 14:09:22;;;;;;;7.90;4.83;;;;;7.00;102715.00;;;;5067975;28;20294;-69
2022/01/22 14:12:11;;;;;;;11.67;3.97;;;;;7.20;102727.00;;;;5062376;28;20700;-72
2022/01/22 14:15:04;;;;;;;9.03;4.50;;;;;7.10;102717.00;;;;5064486;28;20227;-70
2022/01/22 14:18:05;;;;;;;6.53;4.23;;;;;7.00;102719.00;;;;5059929;28;20278;-71
2022/01/22 14:20:53;;;;;;;10.60;3.97;;;;;7.10;102695.00;;;;5065127;28;20354;-71
2022/01/22 14:23:41;;;;;;;7.50;3.90;;;;;7.10;102703.00;;;;5067415;28;20236;-72
2022/01/22 14:26:34;;;;;;;7.70;4.33;;;;;7.00;102716.00;;;;5067441;28;20235;-71
2022/01/22 14:29:20;;;;;;;9.73;4.17;;;;;7.00;102713.00;;;;5063892;28;20302;-72
2022/01/22 14:32:17;;;;;;;7.90;4.03;;;;;7.00;102711.00;;;;5052905;28;20248;-72
2022/01/22 14:35:19;;;;;;;11.77;3.60;;;;;7.10;102712.00;;;;5072131;28;20218;-71
2022/01/22 14:38:25;;;;;;;5.73;3.67;;;;;7.10;102717.00;;;;5061455;28;20236;-71
2022/01/22 14:44:33;;;;;;;7.23;4.23;;;;;7.00;102709.00;;;;5065014;28;20242;-71
2022/01/22 14:47:21;;;;;;;7.07;4.20;;;;;6.90;102710.00;;;;5066891;28;20747;-71
2022/01/22 14:50:09;;;;;;;6.10;4.00;;;;;6.90;102707.00;;;;5068672;28;20266;-70
2022/01/22 14:52:56;;;;;;;8.97;4.03;;;;;6.90;102713.00;;;;5065176;28;20228;-71
2022/01/22 14:55:49;;;;;;;12.23;4.07;;;;;6.90;102707.00;;;;5061154;28;20232;-71
2022/01/22 14:58:38;;;;;;;7.70;4.57;;;;;6.90;102705.00;;;;5065876;28;20247;-73
2022/01/22 15:01:24;;;;;;;9.17;4.70;;;;;6.90;102719.00;;;;5061095;28;20228;-70
2022/01/22 15:04:10;;;;;;;9.37;4.47;;;;;6.90;102732.00;;;;5057553;28;20236;-71
2022/01/22 15:07:15;;;;;;;12.10;5.07;;;;;6.90;102728.00;;;;5050883;28;20239;-71
2022/01/22 15:10:02;;;;;;;9.70;5.10;;;;;6.90;102728.00;;;;5057842;28;20228;-70
2022/01/22 15:12:48;;;;;;;8.97;4.77;;;;;6.90;102724.00;;;;5055394;28;20227;-71
2022/01/22 15:15:58;;;;;;;11.00;5.57;;;;;6.90;102717.00;;;;5052388;28;20259;-71
2022/01/22 15:18:53;;;;;;;11.53;5.00;;;;;6.90;102723.00;;;;5060054;28;20235;-69
2022/01/22 15:21:43;;;;;;;9.03;5.33;;;;;6.90;102724.00;;;;5065535;28;20612;-72
2022/01/22 15:24:29;;;;;;;21.93;10.83;;;;;6.80;102724.00;;;;5065627;28;20244;-73